Time;durP1;ratioP1;P1;durP2;ratioP2;P2;SDS_P1;SDS_P2;PMS_P1;PMS_P2;Temp;Humidity;BMP_temperature;BMP_pressure;BME280_temperature;BME280_humidity;BME280_pressure;Samples;Min_cycle;Max_cycle;Signal;HPM_P1;HPM_P2
2023/07/16 00:01:49;;;;;;;10.07;6.75;;;;;;;23.22;62.63;95029.75;5072893;28;20093;-76
2023/07/16 00:04:15;;;;;;;9.43;7.85;;;;;;;23.25;63.52;95046.06;5071787;28;20510;-77
2023/07/16 00:06:40;;;;;;;9.45;7.15;;;;;;;23.10;63.17;95040.13;5069430;28;20471;-76
2023/07/16 00:09:06;;;;;;;10.90;6.95;;;;;;;23.13;62.58;95027.28;5067581;28;20086;-77
2023/07/16 00:11:31;;;;;;;7.45;6.40;;;;;;;23.23;62.62;95040.13;5069285;28;20021;-76
2023/07/16 00:13:56;;;;;;;8.35;5.93;;;;;;;23.04;62.97;95022.34;5067287;28;20028;-76
2023/07/16 00:16:22;;;;;;;8.00;6.65;;;;;;;23.13;63.11;95029.94;5068508;28;20406;-77
2023/07/16 00:18:47;;;;;;;10.85;7.00;;;;;;;22.95;63.63;95009.28;5074024;28;20449;-76
2023/07/16 00:21:13;;;;;;;8.43;6.32;;;;;;;23.17;62.65;95025.84;5073137;28;20020;-77
2023/07/16 00:23:38;;;;;;;8.23;6.68;;;;;;;23.02;63.66;95019.91;5068009;28;20078;-76
2023/07/16 00:26:04;;;;;;;8.00;6.53;;;;;;;22.78;64.26;95023.84;5071914;28;20478;-76
2023/07/16 00:28:29;;;;;;;10.13;6.43;;;;;;;22.89;63.88;95038.38;5076048;28;20032;-76
2023/07/16 00:30:55;;;;;;;9.43;6.57;;;;;;;22.88;63.86;95039.41;5092983;28;20379;-76
2023/07/16 00:33:20;;;;;;;7.07;6.30;;;;;;;22.88;63.92;95034.91;5073033;28;20067;-75
2023/07/16 00:35:49;;;;;;;6.82;6.13;;;;;;;22.98;63.49;95034.56;5072193;28;20024;-75
2023/07/16 00:38:16;;;;;;;10.45;6.28;;;;;;;22.67;63.90;95012.00;5073845;28;20142;-75
2023/07/16 00:40:41;;;;;;;10.80;6.30;;;;;;;22.82;63.97;95035.72;5073209;28;20036;-76
2023/07/16 00:43:07;;;;;;;8.02;5.90;;;;;;;22.85;63.99;95029.19;5072945;28;20033;-76
2023/07/16 00:45:32;;;;;;;8.02;6.13;;;;;;;22.89;63.50;95031.22;5056586;28;20028;-76
2023/07/16 00:47:58;;;;;;;8.88;6.00;;;;;;;22.72;63.90;95014.88;5073245;28;20547;-75
2023/07/16 00:50:23;;;;;;;7.85;6.05;;;;;;;22.67;63.93;95024.41;5073159;28;20021;-75
2023/07/16 00:52:48;;;;;;;9.32;6.38;;;;;;;22.73;64.28;95029.75;5073184;28;20029;-75
2023/07/16 00:55:14;;;;;;;11.40;5.80;;;;;;;22.67;63.89;95027.88;5073314;28;20028;-75
2023/07/16 00:57:39;;;;;;;6.63;5.45;;;;;;;22.79;63.19;95025.50;5072895;28;20033;-75
2023/07/16 01:00:06;;;;;;;6.72;5.45;;;;;;;22.69;63.58;95035.63;5071981;28;20029;-76
2023/07/16 01:02:31;;;;;;;7.55;6.25;;;;;;;22.65;64.62;95029.94;5072828;28;20112;-75
2023/07/16 01:04:56;;;;;;;9.05;5.95;;;;;;;22.56;64.84;95032.91;5072882;28;20086;-76
2023/07/16 01:07:22;;;;;;;8.23;5.65;;;;;;;22.48;65.50;95031.25;5072760;28;20032;-75
2023/07/16 01:09:48;;;;;;;9.68;5.57;;;;;;;22.40;65.91;95041.97;5072787;28;20081;-75
2023/07/16 01:12:13;;;;;;;8.48;5.65;;;;;;;;;;5072590;28;20047;-76
2023/07/16 01:14:39;;;;;;;7.43;5.53;;;;;;;22.28;65.89;95024.00;5072689;28;20021;-75
2023/07/16 01:17:06;;;;;;;6.00;5.40;;;;;;;22.34;65.50;95022.41;5072265;28;20535;-76
2023/07/16 01:19:34;;;;;;;6.38;5.65;;;;;;;22.20;66.32;95032.09;5073731;28;20036;-75
2023/07/16 01:22:16;;;;;;;8.85;5.55;;;;;;;22.07;66.17;95024.88;5072456;28;20066;-76
2023/07/16 01:25:06;;;;;;;6.15;5.05;;;;;;;22.09;65.98;95033.44;5072555;28;20055;-75
2023/07/16 01:27:50;;;;;;;7.23;5.63;;;;;;;22.11;65.84;95037.72;5073797;28;20036;-76
2023/07/16 01:30:16;;;;;;;6.15;4.97;;;;;;;22.30;65.27;95035.22;5072474;28;20470;-76
2023/07/16 01:32:41;;;;;;;6.63;5.35;;;;;;;22.26;65.24;95019.94;5039127;28;20035;-76
2023/07/16 01:35:07;;;;;;;8.35;5.00;;;;;;;22.20;65.71;95026.81;5055433;28;20032;-75
2023/07/16 01:37:32;;;;;;;7.10;5.30;;;;;;;22.14;65.97;95030.19;5071576;28;20028;-76
2023/07/16 01:39:58;;;;;;;6.30;5.20;;;;;;;22.18;66.14;95020.91;5072100;28;20035;-76
2023/07/16 01:42:23;;;;;;;9.10;5.90;;;;;;;22.04;66.39;95027.91;5072076;28;20498;-75
2023/07/16 01:44:48;;;;;;;6.15;4.97;;;;;;;22.10;66.16;95015.72;5055476;28;20078;-75
2023/07/16 01:47:30;;;;;;;6.28;5.03;;;;;;;22.13;65.98;95031.22;5073537;28;20041;-75
2023/07/16 01:49:55;;;;;;;7.43;5.20;;;;;;;21.92;66.70;95025.97;5072034;28;20112;-75
2023/07/16 01:52:21;;;;;;;8.05;5.13;;;;;;;21.71;66.62;95017.06;5071955;28;20484;-75
2023/07/16 01:54:46;;;;;;;6.00;4.70;;;;;;;21.88;66.59;95036.13;5055258;28;20024;-76
2023/07/16 01:57:12;;;;;;;5.55;4.97;;;;;;;21.84;66.99;95032.19;5071840;28;20082;-76
2023/07/16 01:59:37;;;;;;;8.90;5.22;;;;;;;21.76;67.11;95022.59;5105597;28;20032;-75
2023/07/16 02:02:03;;;;;;;7.70;4.97;;;;;;;21.80;67.37;95020.38;5105475;28;20425;-76
2023/07/16 02:04:28;;;;;;;6.47;5.22;;;;;;;21.74;67.83;95040.47;5072944;28;20017;-75
2023/07/16 02:06:54;;;;;;;7.13;5.10;;;;;;;21.67;68.15;95039.59;5073152;28;20040;-76
2023/07/16 02:09:20;;;;;;;5.35;4.50;;;;;;;21.53;68.71;95032.56;5073190;28;20028;-76
2023/07/16 02:11:45;;;;;;;7.80;4.47;;;;;;;21.47;68.64;95026.19;5071597;28;20616;-76
2023/07/16 02:14:13;;;;;;;7.18;4.53;;;;;;;21.30;68.45;95009.75;5071553;28;20040;-76
2023/07/16 02:16:38;;;;;;;7.25;5.10;;;;;;;21.37;68.91;95018.59;5072656;28;20025;-75
2023/07/16 02:19:03;;;;;;;6.10;4.45;;;;;;;21.36;69.25;95031.97;5072407;28;20121;-76
2023/07/16 02:21:29;;;;;;;5.80;4.70;;;;;;;21.41;68.70;95030.41;5071473;28;20024;-76
2023/07/16 02:23:54;;;;;;;5.60;4.70;;;;;;;21.41;69.13;95032.25;5072981;28;20032;-75
2023/07/16 02:26:20;;;;;;;7.13;4.57;;;;;;;21.23;69.47;95018.59;5072558;28;20024;-76
2023/07/16 02:28:45;;;;;;;4.80;4.30;;;;;;;21.12;69.72;95022.59;5072924;28;20579;-76
2023/07/16 02:31:10;;;;;;;7.53;4.57;;;;;;;21.09;69.67;95022.94;5071292;28;20060;-76
2023/07/16 02:33:36;;;;;;;6.18;4.68;;;;;;;21.10;69.78;95019.31;5071262;28;20029;-76
2023/07/16 02:36:01;;;;;;;6.45;4.28;;;;;;;21.11;69.83;95037.59;5072382;28;20043;-76
2023/07/16 02:38:27;;;;;;;8.43;4.78;;;;;;;21.03;70.11;95032.41;5072548;28;20398;-77
2023/07/16 02:40:52;;;;;;;8.38;4.53;;;;;;;21.01;69.96;95025.72;5071030;28;20020;-76
2023/07/16 02:43:17;;;;;;;6.00;4.10;;;;;;;21.12;69.64;95035.78;5070073;28;20031;-76
2023/07/16 02:45:43;;;;;;;5.47;4.15;;;;;;;21.02;69.08;95033.44;5050825;28;20550;-76
2023/07/16 02:48:08;;;;;;;5.50;4.22;;;;;;;21.00;68.74;95024.06;5047854;28;20033;-77
2023/07/16 02:50:37;;;;;;;9.27;4.80;;;;;;;21.13;68.46;95025.03;5050376;28;20529;-76
2023/07/16 02:53:06;;;;;;;5.10;4.13;;;;;;;21.30;67.84;95038.81;5049810;28;20075;-77
2023/07/16 02:55:32;;;;;;;8.80;4.57;;;;;;;21.12;69.07;95023.41;5049113;28;20029;-77
2023/07/16 02:57:57;;;;;;;6.07;4.30;;;;;;;21.26;68.51;95037.56;5050099;28;20059;-77
2023/07/16 03:00:23;;;;;;;5.47;4.18;;;;;;;21.21;68.58;95026.72;5049230;28;20074;-77
2023/07/16 03:02:49;;;;;;;6.07;4.22;;;;;;;21.29;68.55;95034.53;5049914;28;20028;-76
2023/07/16 03:05:16;;;;;;;5.47;4.43;;;;;;;21.09;68.83;95039.63;5050412;28;20044;-77
2023/07/16 03:07:41;;;;;;;7.38;4.53;;;;;;;21.14;68.68;95034.56;5033990;28;20059;-76
2023/07/16 03:10:07;;;;;;;6.88;4.15;;;;;;;20.95;68.76;95022.81;5051451;28;20399;-77
2023/07/16 03:12:32;;;;;;;4.63;3.90;;;;;;;21.05;68.93;95043.63;5049874;28;20036;-77
2023/07/16 03:14:57;;;;;;;5.95;4.03;;;;;;;21.08;69.26;95045.06;5033725;28;20033;-77
2023/07/16 03:17:23;;;;;;;5.82;4.20;;;;;;;20.89;69.47;95047.28;5050052;28;20111;-77
2023/07/16 03:19:48;;;;;;;5.68;3.97;;;;;;;20.83;69.98;95044.56;5050172;28;20387;-77
2023/07/16 03:22:14;;;;;;;8.93;4.60;;;;;;;20.74;70.06;95043.88;5050175;28;20025;-77
2023/07/16 03:24:39;;;;;;;5.55;3.90;;;;;;;20.75;69.85;95024.38;5050288;28;20021;-77
2023/07/16 03:27:06;;;;;;;7.15;4.20;;;;;;;20.92;69.52;95044.31;5050034;28;20036;-77
2023/07/16 03:29:32;;;;;;;5.28;4.00;;;;;;;20.88;69.70;95027.19;5083560;28;20083;-77
2023/07/16 03:31:58;;;;;;;6.68;3.90;;;;;;;20.88;69.46;95050.13;5033458;28;20517;-76
2023/07/16 03:34:23;;;;;;;5.20;4.20;;;;;;;20.93;69.60;95038.00;5033411;28;20029;-77
2023/07/16 03:36:49;;;;;;;5.57;4.15;;;;;;;21.07;69.44;95046.09;5049999;28;20028;-76
2023/07/16 03:39:14;;;;;;;8.05;4.15;;;;;;;20.96;69.79;95040.28;5051377;28;20037;-77
2023/07/16 03:41:40;;;;;;;5.80;4.28;;;;;;;21.10;69.57;95061.56;5051131;28;20017;-76
2023/07/16 03:44:05;;;;;;;6.90;4.00;;;;;;;20.97;69.26;95041.09;5049904;28;20056;-77
2023/07/16 03:46:30;;;;;;;5.20;3.83;;;;;;;21.11;69.71;95044.69;5049906;28;20021;-77
2023/07/16 03:48:56;;;;;;;5.03;4.07;;;;;;;21.07;69.91;95060.09;5049940;28;20041;-76
2023/07/16 03:51:21;;;;;;;6.05;4.10;;;;;;;21.00;70.49;95050.47;5049855;28;20040;-77
2023/07/16 03:53:47;;;;;;;5.32;3.83;;;;;;;21.13;69.99;95056.72;5050833;28;20033;-76
2023/07/16 03:56:12;;;;;;;5.93;3.92;;;;;;;21.12;69.43;95049.00;5050977;28;20527;-77
2023/07/16 03:58:37;;;;;;;8.27;4.20;;;;;;;21.33;69.37;95056.13;5049330;28;20092;-77
2023/07/16 04:01:03;;;;;;;4.45;3.63;;;;;;;21.30;69.20;95049.38;5049720;28;20415;-77
2023/07/16 04:03:28;;;;;;;5.20;4.18;;;;;;;21.39;69.39;95058.84;5049748;28;20033;-76
2023/07/16 04:06:04;;;;;;;6.32;3.83;;;;;;;21.47;68.55;95054.44;5049634;28;20471;-77
2023/07/16 04:08:29;;;;;;;6.30;3.80;;;;;;;21.67;66.75;95052.81;5033062;28;20117;-76
2023/07/16 04:10:55;;;;;;;5.28;3.60;;;;;;;21.89;66.64;95045.66;5049494;28;20507;-77
2023/07/16 04:13:20;;;;;;;5.70;4.13;;;;;;;22.59;64.28;95043.13;5051058;28;20032;-76
2023/07/16 04:15:45;;;;;;;4.90;3.83;;;;;;;23.48;62.18;95061.59;5067780;28;20028;-77
2023/07/16 04:18:11;;;;;;;6.32;3.60;;;;;;;24.03;59.27;95049.03;5052632;28;20061;-76
2023/07/16 04:20:37;;;;;;;5.13;3.90;;;;;;;24.61;57.42;95051.03;5069831;28;20430;-77
2023/07/16 04:23:03;;;;;;;4.90;3.72;;;;;;;25.25;54.89;95049.41;5069380;28;20033;-77
2023/07/16 04:25:28;;;;;;;5.10;3.20;;;;;;;25.52;52.98;95051.88;5069570;28;20024;-77
2023/07/16 04:27:54;;;;;;;3.95;3.50;;;;;;;26.23;51.92;95050.78;5052680;28;20032;-77
2023/07/16 04:30:19;;;;;;;5.10;3.38;;;;;;;26.61;50.53;95069.31;5069766;28;20082;-77
2023/07/16 04:32:44;;;;;;;5.95;3.55;;;;;;;26.18;50.42;95056.75;5070804;28;20031;-77
2023/07/16 04:35:10;;;;;;;4.35;3.40;;;;;;;27.09;48.93;95052.56;5052609;28;20036;-77
2023/07/16 04:37:35;;;;;;;5.03;3.50;;;;;;;27.82;47.74;95066.81;5052634;28;20031;-77
2023/07/16 04:40:01;;;;;;;6.88;3.40;;;;;;;27.88;47.49;95060.56;5035912;28;20037;-77
2023/07/16 04:42:26;;;;;;;6.32;3.83;;;;;;;28.40;46.49;95058.06;5052659;28;20055;-77
2023/07/16 04:44:51;;;;;;;9.05;3.75;;;;;;;29.09;45.30;95060.16;5070506;28;20033;-77
2023/07/16 04:47:17;;;;;;;4.82;3.53;;;;;;;29.34;44.57;95059.84;5069204;28;20479;-76
2023/07/16 04:49:42;;;;;;;5.13;3.45;;;;;;;29.32;44.82;95065.41;5047823;28;20082;-78
2023/07/16 04:52:08;;;;;;;3.90;3.35;;;;;;;28.86;45.26;95053.78;5065706;28;20082;-77
2023/07/16 04:54:37;;;;;;;6.95;3.95;;;;;;;28.73;45.42;95062.03;5048621;28;20104;-77
2023/07/16 04:57:03;;;;;;;6.13;3.90;;;;;;;28.50;46.08;95077.03;5066427;28;20298;-77
2023/07/16 04:59:29;;;;;;;7.22;3.95;;;;;;;28.44;46.60;95072.59;5062669;28;20508;-77
2023/07/16 05:01:54;;;;;;;5.30;3.83;;;;;;;27.55;47.69;95074.34;5019945;28;20037;-76
2023/07/16 05:04:20;;;;;;;4.95;3.80;;;;;;;27.35;49.08;95067.44;5056258;28;20112;-77
2023/07/16 05:06:45;;;;;;;7.18;4.38;;;;;;;27.10;48.71;95069.38;5061251;28;20059;-77
2023/07/16 05:09:11;;;;;;;7.15;4.00;;;;;;;27.28;49.29;95076.56;5091280;28;20035;-77
2023/07/16 05:11:38;;;;;;;5.57;4.00;;;;;;;27.29;49.28;95070.19;5068974;28;20046;-77
2023/07/16 05:14:03;;;;;;;5.78;4.30;;;;;;;27.16;48.92;95074.66;5075697;28;20429;-75
2023/07/16 05:16:28;;;;;;;9.48;4.03;;;;;;;27.02;49.60;95073.13;5078643;28;20024;-76
2023/07/16 05:18:56;;;;;;;6.72;4.20;;;;;;;27.02;49.36;95077.66;5070706;28;20395;-76
2023/07/16 05:21:21;;;;;;;6.90;4.07;;;;;;;27.02;49.33;95083.81;5036945;28;20395;-75
2023/07/16 05:23:47;;;;;;;6.05;4.15;;;;;;;27.01;50.01;95084.84;5093253;28;20028;-75
2023/07/16 05:26:12;;;;;;;5.88;4.10;;;;;;;27.04;49.58;95078.25;5052702;28;20120;-76
2023/07/16 05:28:38;;;;;;;6.93;4.72;;;;;;;26.96;50.04;95079.38;5098639;28;20028;-76
2023/07/16 05:31:03;;;;;;;5.93;4.10;;;;;;;26.44;51.54;95076.19;5069883;28;20033;-76
2023/07/16 05:33:29;;;;;;;6.43;4.00;;;;;;;26.71;51.61;95076.78;5053586;28;20032;-75
2023/07/16 05:35:55;;;;;;;6.80;4.40;;;;;;;26.55;51.36;95072.84;5070455;28;20103;-75
2023/07/16 05:38:20;;;;;;;6.88;3.90;;;;;;;26.58;51.95;95060.91;5085533;28;20489;-75
2023/07/16 05:40:46;;;;;;;6.07;4.30;;;;;;;26.56;51.69;95076.31;5066778;28;20033;-75
2023/07/16 05:43:11;;;;;;;6.38;4.30;;;;;;;26.57;51.72;95065.44;5070164;28;20024;-76
2023/07/16 05:45:37;;;;;;;8.88;4.30;;;;;;;26.93;50.37;95077.97;5068708;28;20028;-75
2023/07/16 05:48:03;;;;;;;7.47;4.00;;;;;;;26.94;50.28;95087.59;5070349;28;20044;-76
2023/07/16 05:50:28;;;;;;;6.72;4.05;;;;;;;27.22;49.64;95067.63;5051132;28;20044;-76
2023/07/16 05:52:54;;;;;;;7.00;4.38;;;;;;;27.20;49.18;95080.34;5071652;28;20127;-75
2023/07/16 05:55:19;;;;;;;7.60;4.28;;;;;;;27.11;49.54;95095.81;5077539;28;20039;-73
2023/07/16 05:57:45;;;;;;;6.13;4.43;;;;;;;27.13;49.41;95085.72;5060681;28;20087;-73
2023/07/16 06:00:10;;;;;;;6.55;4.65;;;;;;;27.11;49.49;95093.16;5059082;28;20040;-74
2023/07/16 06:02:36;;;;;;;7.38;4.50;;;;;;;27.07;50.27;95094.63;5051237;28;20040;-75
2023/07/16 06:05:01;;;;;;;6.10;4.30;;;;;;;27.24;49.10;95089.53;5079274;28;20035;-75
2023/07/16 06:07:27;;;;;;;11.68;3.85;;;;;;;27.69;47.72;95093.66;5060734;28;20020;-75
2023/07/16 06:09:52;;;;;;;7.18;4.40;;;;;;;27.76;48.22;95092.53;5055695;28;20040;-75
2023/07/16 06:12:18;;;;;;;10.45;4.20;;;;;;;27.44;47.77;95091.13;5071494;28;20039;-75
2023/07/16 06:14:43;;;;;;;9.40;4.30;;;;;;;27.59;48.10;95088.88;5076764;28;20030;-75
2023/07/16 06:17:08;;;;;;;6.13;4.40;;;;;;;27.47;49.33;95085.34;5091856;28;20027;-75
2023/07/16 06:19:34;;;;;;;7.95;4.35;;;;;;;27.58;48.36;95093.41;5070184;28;20029;-75
2023/07/16 06:21:59;;;;;;;6.80;4.10;;;;;;;27.84;48.78;95086.09;5070631;28;20033;-76
2023/07/16 06:24:25;;;;;;;8.38;4.78;;;;;;;28.13;48.31;95080.91;5071062;28;20029;-75
2023/07/16 06:26:50;;;;;;;6.57;4.22;;;;;;;27.84;48.99;95080.75;5070146;28;20024;-74
2023/07/16 06:29:15;;;;;;;8.13;4.28;;;;;;;27.71;48.53;95086.25;5074299;28;20036;-75
2023/07/16 06:31:53;;;;;;;5.57;4.32;;;;;;;28.00;47.90;95089.94;5048309;28;20028;-75
2023/07/16 06:34:19;;;;;;;10.52;4.80;;;;;;;28.18;47.58;95087.19;5077425;27;20028;-75
2023/07/16 06:36:44;;;;;;;7.78;4.53;;;;;;;28.31;47.55;95080.03;5053275;28;20028;-75
2023/07/16 06:39:10;;;;;;;6.05;4.32;;;;;;;28.23;47.76;95067.81;5107297;28;20510;-75
2023/07/16 06:41:35;;;;;;;6.40;4.28;;;;;;;28.42;47.42;95082.72;5069085;28;20482;-75
2023/07/16 06:44:00;;;;;;;5.50;3.90;;;;;;;28.74;47.15;95079.69;5070859;28;20029;-76
2023/07/16 06:46:26;;;;;;;6.55;4.25;;;;;;;28.72;46.61;95079.94;5070121;28;20471;-74
2023/07/16 06:48:51;;;;;;;5.28;4.22;;;;;;;28.66;46.46;95072.84;5071247;28;20051;-75
2023/07/16 06:51:17;;;;;;;6.80;4.68;;;;;;;28.62;46.98;95070.88;5067069;28;20040;-75
2023/07/16 06:53:42;;;;;;;5.53;4.30;;;;;;;28.75;46.66;95067.94;5070652;28;20090;-74
2023/07/16 06:56:07;;;;;;;6.38;4.40;;;;;;;28.84;46.55;95071.91;5072888;28;20493;-74
2023/07/16 06:58:33;;;;;;;6.63;4.20;;;;;;;29.28;44.66;95071.47;5077463;28;20493;-74
2023/07/16 07:00:59;;;;;;;6.57;4.75;;;;;;;29.40;44.83;95067.72;5072211;28;20032;-76
2023/07/16 07:03:24;;;;;;;6.22;4.40;;;;;;;29.10;45.93;95072.47;5069372;28;20466;-75
2023/07/16 07:05:49;;;;;;;4.95;4.35;;;;;;;29.00;45.16;95073.00;5069897;28;20494;-75
2023/07/16 07:08:15;;;;;;;7.93;3.90;;;;;;;29.20;45.45;95078.03;5073697;28;20035;-75
2023/07/16 07:10:40;;;;;;;6.38;4.22;;;;;;;29.29;45.20;95070.44;5065384;28;20078;-75
2023/07/16 07:13:06;;;;;;;5.18;4.07;;;;;;;29.21;45.04;95074.28;5066221;28;20029;-74
2023/07/16 07:15:31;;;;;;;8.80;4.63;;;;;;;29.24;45.39;95075.69;5031554;28;20443;-75
2023/07/16 07:17:57;;;;;;;5.80;3.95;;;;;;;29.25;45.04;95077.28;5086544;28;20108;-75
2023/07/16 07:20:22;;;;;;;8.35;4.78;;;;;;;29.44;44.21;95059.19;5067357;28;20090;-75
2023/07/16 07:22:47;;;;;;;4.85;4.15;;;;;;;29.76;43.94;95059.56;5069788;28;20391;-75
2023/07/16 07:25:13;;;;;;;8.05;4.32;;;;;;;30.19;42.64;95058.13;5069709;28;20029;-74
2023/07/16 07:27:38;;;;;;;6.88;4.55;;;;;;;30.19;43.60;95066.16;5051654;28;20039;-75
2023/07/16 07:30:04;;;;;;;6.93;4.57;;;;;;;30.00;43.83;95062.91;5071639;28;20036;-75
2023/07/16 07:32:29;;;;;;;5.75;4.93;;;;;;;29.94;43.85;95062.00;5051544;28;20028;-74
2023/07/16 07:34:55;;;;;;;7.70;4.60;;;;;;;29.78;43.68;95068.97;5078331;28;20035;-75
2023/07/16 07:37:20;;;;;;;7.00;4.35;;;;;;;30.03;43.05;95055.22;5078113;28;20028;-75
2023/07/16 07:39:47;;;;;;;5.13;4.63;;;;;;;29.99;43.37;95062.09;5071295;28;20086;-75
2023/07/16 07:42:13;;;;;;;7.65;5.20;;;;;;;29.97;43.35;95044.66;5068931;28;20041;-75
2023/07/16 07:44:38;;;;;;;7.80;5.60;;;;;;;29.94;44.28;95061.19;5069563;28;20027;-75
2023/07/16 07:47:04;;;;;;;8.88;4.88;;;;;;;29.93;43.48;95059.59;5052833;28;20036;-75
2023/07/16 07:49:30;;;;;;;6.90;5.13;;;;;;;30.03;43.01;95059.72;5070280;28;20115;-75
2023/07/16 07:51:55;;;;;;;8.45;5.13;;;;;;;30.12;42.27;95047.59;5086834;28;20028;-74
2023/07/16 07:54:20;;;;;;;6.72;5.10;;;;;;;30.28;42.83;95054.00;5039688;28;20040;-75
2023/07/16 07:56:46;;;;;;;7.47;5.10;;;;;;;30.60;42.63;95070.31;5046089;28;20106;-76
2023/07/16 07:59:12;;;;;;;9.65;5.45;;;;;;;30.26;43.63;95059.63;5045170;28;20036;-74
2023/07/16 08:01:37;;;;;;;7.53;5.50;;;;;;;30.11;42.50;95062.00;5059722;28;20028;-75
2023/07/16 08:04:02;;;;;;;8.25;5.38;;;;;;;30.73;41.68;95069.97;5070841;28;20032;-75
2023/07/16 08:06:28;;;;;;;7.63;5.57;;;;;;;30.68;41.26;95066.41;5074524;28;20025;-74
2023/07/16 08:08:53;;;;;;;7.85;5.47;;;;;;;30.59;41.25;95063.34;5071020;28;20033;-76
2023/07/16 08:11:19;;;;;;;7.50;5.75;;;;;;;30.49;41.71;95063.16;5069188;28;20033;-74
2023/07/16 08:13:44;;;;;;;7.65;5.32;;;;;;;30.17;42.05;95053.03;5070631;28;20025;-74
2023/07/16 08:16:09;;;;;;;10.07;5.25;;;;;;;30.20;42.68;95049.03;5089204;28;20571;-75
2023/07/16 08:18:35;;;;;;;7.25;5.13;;;;;;;30.42;42.18;95057.16;5100875;28;20044;-75
2023/07/16 08:21:00;;;;;;;7.72;5.60;;;;;;;30.31;41.58;95050.84;5070892;28;20025;-75
2023/07/16 08:23:26;;;;;;;10.38;6.10;;;;;;;30.36;41.56;95052.78;5069322;28;20040;-75
2023/07/16 08:25:51;;;;;;;7.75;5.55;;;;;;;30.80;40.53;95056.41;5070330;28;20021;-75
2023/07/16 08:28:17;;;;;;;9.52;6.95;;;;;;;31.06;41.37;95067.44;5067718;28;20055;-76
2023/07/16 08:30:42;;;;;;;5.93;4.90;;;;;;;31.15;40.89;95065.97;5069321;28;20032;-75
2023/07/16 08:33:07;;;;;;;9.85;5.32;;;;;;;31.03;41.13;95052.66;5068580;28;20036;-75
2023/07/16 08:35:33;;;;;;;6.13;5.03;;;;;;;31.30;40.58;95057.28;5068946;28;20020;-75
2023/07/16 08:37:58;;;;;;;5.75;5.20;;;;;;;31.38;40.66;95054.19;5102895;28;20036;-76
2023/07/16 08:40:24;;;;;;;7.47;5.15;;;;;;;31.44;39.95;95053.19;5067691;28;20043;-75
2023/07/16 08:42:49;;;;;;;7.68;5.55;;;;;;;31.58;40.05;95070.50;5070566;28;20031;-75
2023/07/16 08:45:16;;;;;;;5.57;4.78;;;;;;;31.67;40.32;95054.75;5057946;28;20028;-75
2023/07/16 08:47:41;;;;;;;8.82;5.32;;;;;;;31.69;39.66;95043.78;5066313;28;20036;-75
2023/07/16 08:50:07;;;;;;;8.30;5.28;;;;;;;31.19;41.06;95056.34;5073346;28;20498;-75
2023/07/16 08:52:32;;;;;;;6.43;4.82;;;;;;;31.53;40.34;95050.84;5071267;28;20040;-75
2023/07/16 08:54:58;;;;;;;5.70;4.95;;;;;;;31.03;40.99;95046.50;5072531;28;20479;-75
2023/07/16 08:57:23;;;;;;;6.05;4.85;;;;;;;31.29;40.75;95053.78;5071316;28;20031;-75
2023/07/16 08:59:49;;;;;;;11.25;5.13;;;;;;;31.51;40.88;95056.50;5070451;28;20036;-75
2023/07/16 09:02:16;;;;;;;6.43;4.55;;;;;;;31.25;40.40;95049.16;5071470;28;20060;-75
2023/07/16 09:04:42;;;;;;;7.72;5.07;;;;;;;30.96;41.46;95041.31;5072363;28;20032;-75
2023/07/16 09:07:07;;;;;;;7.72;5.43;;;;;;;30.96;41.76;95041.31;5073362;28;20032;-75
2023/07/16 09:09:33;;;;;;;12.15;5.07;;;;;;;31.07;41.29;95050.31;5065528;28;20114;-75
2023/07/16 09:11:58;;;;;;;6.10;5.18;;;;;;;31.03;40.76;95049.97;5088032;28;20455;-75
2023/07/16 09:14:23;;;;;;;7.75;5.25;;;;;;;30.95;41.56;95037.00;5075382;28;20405;-75
2023/07/16 09:16:52;;;;;;;7.25;5.15;;;;;;;31.08;40.62;95036.63;5075828;28;20040;-75
2023/07/16 09:19:18;;;;;;;8.05;4.97;;;;;;;31.17;41.34;95032.47;5085042;28;20095;-75
2023/07/16 09:21:50;;;;;;;7.75;5.30;;;;;;;31.14;41.18;95026.78;5102734;28;20036;-75
2023/07/16 09:24:16;;;;;;;6.63;5.22;;;;;;;31.30;41.87;95035.81;5074312;28;20032;-74
2023/07/16 09:27:10;;;;;;;8.63;5.43;;;;;;;31.65;40.88;95031.91;5054338;28;20501;-75
2023/07/16 09:29:37;;;;;;;6.45;5.22;;;;;;;31.56;40.95;95037.72;5069671;28;20036;-75
2023/07/16 09:32:04;;;;;;;6.75;5.20;;;;;;;31.63;40.76;95029.50;5069773;28;20060;-75
2023/07/16 09:34:30;;;;;;;6.28;5.10;;;;;;;31.89;39.94;95030.53;5060892;28;20074;-75
2023/07/16 09:36:56;;;;;;;6.57;4.57;;;;;;;32.07;39.84;95032.06;5078092;28;20127;-74
2023/07/16 09:39:22;;;;;;;6.28;5.30;;;;;;;32.02;40.01;95027.44;5075050;28;20536;-75
2023/07/16 09:41:48;;;;;;;9.07;5.43;;;;;;;32.03;39.94;95031.75;5068145;28;20024;-75
2023/07/16 09:44:14;;;;;;;6.00;5.13;;;;;;;31.89;40.58;95027.84;5074484;28;20310;-74
2023/07/16 09:46:39;;;;;;;7.68;5.55;;;;;;;31.85;40.96;95024.06;5075493;28;20107;-75
2023/07/16 09:49:06;;;;;;;8.07;4.93;;;;;;;31.81;40.60;95014.88;5072319;28;20032;-74
2023/07/16 09:51:32;;;;;;;6.95;4.95;;;;;;;31.91;40.67;95031.13;5071271;28;20031;-74
2023/07/16 09:53:57;;;;;;;6.65;5.53;;;;;;;31.40;40.61;95019.88;5071145;28;20183;-75
2023/07/16 09:56:23;;;;;;;9.55;5.50;;;;;;;31.40;41.14;95025.25;5074812;28;20032;-75
2023/07/16 09:58:48;;;;;;;9.07;5.18;;;;;;;31.70;41.29;95010.47;5067257;28;20037;-75
2023/07/16 10:01:13;;;;;;;6.68;5.18;;;;;;;31.60;41.46;95009.31;5065582;28;20028;-73
2023/07/16 10:03:49;;;;;;;7.95;5.45;;;;;;;31.72;40.51;95016.41;5071781;28;20035;-74
2023/07/16 10:06:15;;;;;;;8.07;6.28;;;;;;;31.61;41.06;95000.19;5067760;28;20468;-74
2023/07/16 10:08:40;;;;;;;8.93;5.78;;;;;;;31.52;41.03;95012.47;5071626;28;20050;-75
2023/07/16 10:11:18;;;;;;;6.65;5.80;;;;;;;31.57;41.88;95009.03;5070165;28;20033;-75
2023/07/16 10:13:43;;;;;;;7.75;5.95;;;;;;;31.73;40.72;94994.69;5071623;28;20039;-75
2023/07/16 10:16:11;;;;;;;8.93;6.38;;;;;;;31.72;40.79;95000.31;5069621;28;20032;-75
2023/07/16 10:18:37;;;;;;;7.05;5.65;;;;;;;32.04;40.17;94993.09;5070804;28;20056;-75
2023/07/16 10:21:07;;;;;;;9.95;6.20;;;;;;;32.09;40.65;94994.19;5071153;28;20039;-74
2023/07/16 10:23:39;;;;;;;;;;;;;;;32.20;40.50;95002.03;5070555;28;20457;-75
2023/07/16 10:26:09;;;;;;;10.35;6.00;;;;;;;32.01;40.30;94990.91;5089908;28;19916;-74
2023/07/16 10:28:35;;;;;;;6.97;6.05;;;;;;;32.20;40.31;94988.63;5055564;28;20048;-75
2023/07/16 10:31:00;;;;;;;7.47;6.10;;;;;;;32.28;39.99;94987.31;5067080;28;20029;-74
2023/07/16 10:33:26;;;;;;;10.65;6.38;;;;;;;32.27;40.17;94988.41;5069665;28;20032;-75
2023/07/16 10:35:51;;;;;;;8.80;6.70;;;;;;;32.28;39.78;94996.19;5087570;28;20024;-74
2023/07/16 10:38:17;;;;;;;8.63;6.22;;;;;;;32.18;39.91;94988.09;5087216;28;20021;-75
2023/07/16 10:40:43;;;;;;;7.85;6.40;;;;;;;32.37;40.03;94987.66;5071599;28;20563;-76
2023/07/16 10:43:08;;;;;;;8.63;6.32;;;;;;;32.19;39.93;94994.25;5070627;28;20475;-75
2023/07/16 10:45:33;;;;;;;7.70;5.95;;;;;;;32.10;40.26;94979.69;5070467;28;20021;-75
2023/07/16 10:47:59;;;;;;;8.00;6.07;;;;;;;32.09;39.34;94984.25;5087569;28;20032;-74
2023/07/16 10:50:24;;;;;;;7.05;6.35;;;;;;;32.17;40.55;94989.13;5067325;28;20044;-74
2023/07/16 10:52:53;;;;;;;9.32;6.57;;;;;;;32.21;40.12;94992.94;5053488;28;20415;-75
2023/07/16 10:55:19;;;;;;;6.82;5.95;;;;;;;32.07;39.85;94981.03;5069492;28;20051;-75
2023/07/16 10:57:46;;;;;;;8.25;6.70;;;;;;;32.12;40.44;94977.53;5057449;28;20052;-75
2023/07/16 11:00:12;;;;;;;7.13;6.22;;;;;;;32.28;40.39;94976.59;5024067;28;20067;-75
2023/07/16 11:02:43;;;;;;;9.13;6.78;;;;;;;32.32;39.54;94982.25;5048416;28;20107;-75
2023/07/16 11:05:12;;;;;;;8.20;6.45;;;;;;;32.33;39.23;94970.44;5080060;28;20709;-75
2023/07/16 11:07:38;;;;;;;7.90;7.05;;;;;;;32.25;38.71;94967.16;5069149;28;20490;-75
2023/07/16 11:10:03;;;;;;;7.95;6.30;;;;;;;32.22;38.32;94969.56;5086258;28;20090;-75
2023/07/16 11:12:29;;;;;;;10.90;7.50;;;;;;;32.21;39.33;94978.69;5068976;28;20169;-75
2023/07/16 11:14:55;;;;;;;8.52;6.93;;;;;;;32.14;39.29;94960.09;5112192;27;20077;-75
2023/07/16 11:17:22;;;;;;;13.68;7.55;;;;;;;32.21;39.16;94965.25;5072453;28;20043;-76
2023/07/16 11:19:48;;;;;;;10.02;6.78;;;;;;;32.39;39.04;94966.72;5069527;28;20037;-72
2023/07/16 11:22:14;;;;;;;8.95;6.72;;;;;;;32.44;38.24;94970.22;5069615;28;20036;-74
2023/07/16 11:24:47;;;;;;;9.02;7.00;;;;;;;32.41;38.55;94954.63;5075682;28;20056;-75
2023/07/16 11:27:17;;;;;;;8.80;6.65;;;;;;;32.53;39.08;94956.31;5090180;28;20020;-74
2023/07/16 11:29:53;;;;;;;10.32;7.00;;;;;;;32.64;38.46;94958.00;5080408;28;20674;-74